Terminal Aerodrome Forecast
Issued by NWS

Home | Current Version | Previous Version | Text Only | Print | Product List | Glossary On
Versions: 1 2 3 4 5 6 7 8 9 10 11 12 13 14 15 16 17
000
FTPA31 PHFO 282329
TAFHKO
TAF
PHKO 282329Z 2900/2924 22012KT P6SM VCSH FEW030 BKN080
     FM290400 18010KT P6SM VCSH SCT025 BKN080
     FM291000 12005KT P6SM SCT025 SCT070
     FM292000 22012KT P6SM SCT030 BKN060=

USA.gov is the U.S. government's official web portal to all federal, state and local government web resources and services.